sensor_id;sensor_type;location;lat;lon;timestamp;temperature;humidity
484;DHT22;228;48.922;12.198;2023-02-15T00:01:58;3.60;74.90
484;DHT22;228;48.922;12.198;2023-02-15T00:04:25;3.60;74.70
484;DHT22;228;48.922;12.198;2023-02-15T00:07:16;3.70;74.10
484;DHT22;228;48.922;12.198;2023-02-15T00:09:45;3.60;74.90
484;DHT22;228;48.922;12.198;2023-02-15T00:12:11;4.00;74.00
484;DHT22;228;48.922;12.198;2023-02-15T00:14:38;4.10;72.60
484;DHT22;228;48.922;12.198;2023-02-15T00:17:04;4.10;72.60
484;DHT22;228;48.922;12.198;2023-02-15T00:19:30;3.90;72.90
484;DHT22;228;48.922;12.198;2023-02-15T00:21:56;3.60;73.70
484;DHT22;228;48.922;12.198;2023-02-15T00:24:22;3.70;74.10
484;DHT22;228;48.922;12.198;2023-02-15T00:26:48;3.10;74.70
484;DHT22;228;48.922;12.198;2023-02-15T00:29:17;2.40;77.40
484;DHT22;228;48.922;12.198;2023-02-15T00:31:44;2.60;78.70
484;DHT22;228;48.922;12.198;2023-02-15T00:34:17;2.60;77.50
484;DHT22;228;48.922;12.198;2023-02-15T00:36:45;2.40;78.50
484;DHT22;228;48.922;12.198;2023-02-15T00:39:14;2.40;78.60
484;DHT22;228;48.922;12.198;2023-02-15T00:41:41;2.40;78.50
484;DHT22;228;48.922;12.198;2023-02-15T00:44:08;2.50;78.50
484;DHT22;228;48.922;12.198;2023-02-15T00:46:34;2.70;77.90
484;DHT22;228;48.922;12.198;2023-02-15T00:49:01;3.00;76.60
484;DHT22;228;48.922;12.198;2023-02-15T00:51:27;2.70;77.10
484;DHT22;228;48.922;12.198;2023-02-15T00:53:53;2.60;77.40
484;DHT22;228;48.922;12.198;2023-02-15T00:56:19;2.40;77.40
484;DHT22;228;48.922;12.198;2023-02-15T00:58:46;2.40;78.20
484;DHT22;228;48.922;12.198;2023-02-15T01:01:17;2.70;77.50
484;DHT22;228;48.922;12.198;2023-02-15T01:03:45;3.20;76.40
484;DHT22;228;48.922;12.198;2023-02-15T01:06:13;3.50;75.10
484;DHT22;228;48.922;12.198;2023-02-15T01:08:43;3.90;74.10
484;DHT22;228;48.922;12.198;2023-02-15T01:11:12;3.80;73.70
484;DHT22;228;48.922;12.198;2023-02-15T01:13:40;3.90;73.50
484;DHT22;228;48.922;12.198;2023-02-15T01:16:07;4.20;72.60
484;DHT22;228;48.922;12.198;2023-02-15T01:18:34;3.60;73.50
484;DHT22;228;48.922;12.198;2023-02-15T01:21:00;3.90;73.60
484;DHT22;228;48.922;12.198;2023-02-15T01:23:35;3.90;73.70
484;DHT22;228;48.922;12.198;2023-02-15T01:26:02;4.20;72.50
484;DHT22;228;48.922;12.198;2023-02-15T01:28:28;4.00;71.90
484;DHT22;228;48.922;12.198;2023-02-15T01:30:54;3.80;72.80
484;DHT22;228;48.922;12.198;2023-02-15T01:33:20;3.30;73.00
484;DHT22;228;48.922;12.198;2023-02-15T01:35:46;3.60;73.90
484;DHT22;228;48.922;12.198;2023-02-15T01:38:13;3.60;73.70
484;DHT22;228;48.922;12.198;2023-02-15T01:40:39;3.70;72.50
484;DHT22;228;48.922;12.198;2023-02-15T01:43:10;3.80;72.00
484;DHT22;228;48.922;12.198;2023-02-15T01:45:38;3.60;72.60
484;DHT22;228;48.922;12.198;2023-02-15T01:48:14;3.60;73.60
484;DHT22;228;48.922;12.198;2023-02-15T01:50:50;3.50;72.80
484;DHT22;228;48.922;12.198;2023-02-15T01:53:34;3.40;72.90
484;DHT22;228;48.922;12.198;2023-02-15T01:56:15;3.30;74.30
484;DHT22;228;48.922;12.198;2023-02-15T01:58:55;3.50;73.90
484;DHT22;228;48.922;12.198;2023-02-15T02:01:24;3.30;73.00
484;DHT22;228;48.922;12.198;2023-02-15T02:04:24;3.30;73.70
484;DHT22;228;48.922;12.198;2023-02-15T02:06:57;3.60;73.50
484;DHT22;228;48.922;12.198;2023-02-15T02:09:25;3.20;73.40
484;DHT22;228;48.922;12.198;2023-02-15T02:11:51;3.40;74.30
484;DHT22;228;48.922;12.198;2023-02-15T02:14:20;3.00;74.80
484;DHT22;228;48.922;12.198;2023-02-15T02:16:57;3.40;74.60
484;DHT22;228;48.922;12.198;2023-02-15T02:36:14;3.00;75.80
484;DHT22;228;48.922;12.198;2023-02-15T02:47:29;3.30;74.60
484;DHT22;228;48.922;12.198;2023-02-15T02:50:00;3.00;74.70
484;DHT22;228;48.922;12.198;2023-02-15T02:52:44;3.10;74.90
484;DHT22;228;48.922;12.198;2023-02-15T03:00:54;2.70;76.10
484;DHT22;228;48.922;12.198;2023-02-15T03:03:32;2.80;75.90
484;DHT22;228;48.922;12.198;2023-02-15T03:06:06;2.60;76.10
484;DHT22;228;48.922;12.198;2023-02-15T03:08:40;2.60;76.50
484;DHT22;228;48.922;12.198;2023-02-15T03:11:09;2.80;75.90
484;DHT22;228;48.922;12.198;2023-02-15T03:13:37;2.80;76.80
484;DHT22;228;48.922;12.198;2023-02-15T03:16:05;2.80;76.30
484;DHT22;228;48.922;12.198;2023-02-15T03:24:41;2.90;76.10
484;DHT22;228;48.922;12.198;2023-02-15T03:27:14;3.40;75.60
484;DHT22;228;48.922;12.198;2023-02-15T03:29:50;3.80;73.90
484;DHT22;228;48.922;12.198;2023-02-15T03:32:21;4.10;72.40
484;DHT22;228;48.922;12.198;2023-02-15T03:34:50;4.20;71.80
484;DHT22;228;48.922;12.198;2023-02-15T03:46:37;3.80;72.70
484;DHT22;228;48.922;12.198;2023-02-15T03:49:12;3.90;72.80
484;DHT22;228;48.922;12.198;2023-02-15T03:51:43;3.90;72.10
484;DHT22;228;48.922;12.198;2023-02-15T03:54:22;3.60;72.70
484;DHT22;228;48.922;12.198;2023-02-15T04:00:15;3.30;74.30
484;DHT22;228;48.922;12.198;2023-02-15T04:05:43;3.80;72.70
484;DHT22;228;48.922;12.198;2023-02-15T04:08:10;4.00;72.50
484;DHT22;228;48.922;12.198;2023-02-15T04:10:37;4.20;71.20
484;DHT22;228;48.922;12.198;2023-02-15T04:13:19;4.10;70.50
484;DHT22;228;48.922;12.198;2023-02-15T04:15:46;3.20;72.90
484;DHT22;228;48.922;12.198;2023-02-15T04:18:41;3.20;74.20
484;DHT22;228;48.922;12.198;2023-02-15T04:21:29;2.90;74.60
484;DHT22;228;48.922;12.198;2023-02-15T04:24:14;3.00;75.30
484;DHT22;228;48.922;12.198;2023-02-15T04:27:00;3.30;74.60
484;DHT22;228;48.922;12.198;2023-02-15T04:29:28;3.70;73.30
484;DHT22;228;48.922;12.198;2023-02-15T04:31:57;3.90;72.20
484;DHT22;228;48.922;12.198;2023-02-15T04:34:24;3.90;71.40
484;DHT22;228;48.922;12.198;2023-02-15T04:36:51;3.70;72.30
484;DHT22;228;48.922;12.198;2023-02-15T04:39:18;3.90;72.10
484;DHT22;228;48.922;12.198;2023-02-15T04:41:44;3.80;71.50
484;DHT22;228;48.922;12.198;2023-02-15T04:44:11;4.00;71.50
484;DHT22;228;48.922;12.198;2023-02-15T04:46:37;4.20;71.20
484;DHT22;228;48.922;12.198;2023-02-15T04:49:03;3.60;71.10
484;DHT22;228;48.922;12.198;2023-02-15T04:51:29;3.20;73.40
484;DHT22;228;48.922;12.198;2023-02-15T04:53:55;3.10;73.90
484;DHT22;228;48.922;12.198;2023-02-15T04:56:22;3.50;73.90
484;DHT22;228;48.922;12.198;2023-02-15T04:58:48;3.90;72.90
484;DHT22;228;48.922;12.198;2023-02-15T05:01:14;4.00;71.40
484;DHT22;228;48.922;12.198;2023-02-15T05:03:40;3.90;70.90
484;DHT22;228;48.922;12.198;2023-02-15T05:06:07;3.80;71.20
484;DHT22;228;48.922;12.198;2023-02-15T05:08:33;3.70;71.10
484;DHT22;228;48.922;12.198;2023-02-15T05:10:59;3.50;72.50
484;DHT22;228;48.922;12.198;2023-02-15T05:13:25;3.50;72.30
484;DHT22;228;48.922;12.198;2023-02-15T05:15:52;3.80;71.50
484;DHT22;228;48.922;12.198;2023-02-15T05:18:19;3.70;71.30
484;DHT22;228;48.922;12.198;2023-02-15T05:20:47;3.40;72.10
484;DHT22;228;48.922;12.198;2023-02-15T05:23:13;3.20;73.10
484;DHT22;228;48.922;12.198;2023-02-15T05:25:39;3.00;73.60
484;DHT22;228;48.922;12.198;2023-02-15T05:28:27;3.20;73.00
484;DHT22;228;48.922;12.198;2023-02-15T05:31:03;3.10;73.70
484;DHT22;228;48.922;12.198;2023-02-15T05:33:40;3.00;73.00
484;DHT22;228;48.922;12.198;2023-02-15T05:36:07;3.00;72.90
484;DHT22;228;48.922;12.198;2023-02-15T05:38:33;3.10;72.90
484;DHT22;228;48.922;12.198;2023-02-15T05:40:59;3.10;72.60
484;DHT22;228;48.922;12.198;2023-02-15T05:43:25;3.10;72.80
484;DHT22;228;48.922;12.198;2023-02-15T05:45:53;3.10;73.40
484;DHT22;228;48.922;12.198;2023-02-15T05:48:23;2.90;74.10
484;DHT22;228;48.922;12.198;2023-02-15T05:51:09;3.10;74.10
484;DHT22;228;48.922;12.198;2023-02-15T05:53:39;2.00;75.60
484;DHT22;228;48.922;12.198;2023-02-15T05:56:08;1.80;78.80
484;DHT22;228;48.922;12.198;2023-02-15T05:58:37;2.00;78.20
484;DHT22;228;48.922;12.198;2023-02-15T06:01:23;2.20;78.40
484;DHT22;228;48.922;12.198;2023-02-15T06:03:49;2.70;77.00
484;DHT22;228;48.922;12.198;2023-02-15T06:06:15;3.00;75.70
484;DHT22;228;48.922;12.198;2023-02-15T06:08:41;3.30;74.20
484;DHT22;228;48.922;12.198;2023-02-15T06:11:07;3.60;73.20
484;DHT22;228;48.922;12.198;2023-02-15T06:13:34;3.60;71.90
484;DHT22;228;48.922;12.198;2023-02-15T06:16:00;3.60;72.30
484;DHT22;228;48.922;12.198;2023-02-15T06:18:26;3.50;72.60
484;DHT22;228;48.922;12.198;2023-02-15T06:20:52;3.50;73.00
484;DHT22;228;48.922;12.198;2023-02-15T06:23:18;3.70;72.20
484;DHT22;228;48.922;12.198;2023-02-15T06:25:45;3.80;71.20
484;DHT22;228;48.922;12.198;2023-02-15T06:28:11;3.30;70.80
484;DHT22;228;48.922;12.198;2023-02-15T06:30:38;2.80;73.70
484;DHT22;228;48.922;12.198;2023-02-15T06:33:04;2.90;74.50
484;DHT22;228;48.922;12.198;2023-02-15T06:35:30;2.80;73.90
484;DHT22;228;48.922;12.198;2023-02-15T06:37:56;2.80;74.30
484;DHT22;228;48.922;12.198;2023-02-15T06:40:22;3.10;73.70
484;DHT22;228;48.922;12.198;2023-02-15T06:42:48;3.40;73.20
484;DHT22;228;48.922;12.198;2023-02-15T06:45:14;3.40;72.30
484;DHT22;228;48.922;12.198;2023-02-15T06:47:40;3.70;71.90
484;DHT22;228;48.922;12.198;2023-02-15T06:50:07;3.80;70.90
484;DHT22;228;48.922;12.198;2023-02-15T06:52:34;3.10;72.10
484;DHT22;228;48.922;12.198;2023-02-15T06:55:00;3.20;72.90
484;DHT22;228;48.922;12.198;2023-02-15T06:57:26;2.90;73.50
484;DHT22;228;48.922;12.198;2023-02-15T06:59:52;3.00;73.90
484;DHT22;228;48.922;12.198;2023-02-15T07:02:18;3.20;73.60
484;DHT22;228;48.922;12.198;2023-02-15T07:04:44;3.70;72.50
484;DHT22;228;48.922;12.198;2023-02-15T07:07:11;4.00;70.90
484;DHT22;228;48.922;12.198;2023-02-15T07:09:38;3.90;70.20
484;DHT22;228;48.922;12.198;2023-02-15T07:12:06;3.60;71.20
484;DHT22;228;48.922;12.198;2023-02-15T07:14:51;3.60;71.00
484;DHT22;228;48.922;12.198;2023-02-15T07:17:17;3.20;72.40
484;DHT22;228;48.922;12.198;2023-02-15T07:19:43;2.80;72.90
484;DHT22;228;48.922;12.198;2023-02-15T07:22:09;2.30;76.00
484;DHT22;228;48.922;12.198;2023-02-15T07:24:35;2.70;76.50
484;DHT22;228;48.922;12.198;2023-02-15T07:27:02;2.90;74.40
484;DHT22;228;48.922;12.198;2023-02-15T07:29:28;3.20;74.20
484;DHT22;228;48.922;12.198;2023-02-15T07:31:55;3.10;74.00
484;DHT22;228;48.922;12.198;2023-02-15T07:34:21;3.10;73.30
484;DHT22;228;48.922;12.198;2023-02-15T07:36:47;3.10;73.50
484;DHT22;228;48.922;12.198;2023-02-15T07:39:13;3.30;73.20
484;DHT22;228;48.922;12.198;2023-02-15T07:41:39;3.00;74.80
484;DHT22;228;48.922;12.198;2023-02-15T07:44:12;3.10;74.00
484;DHT22;228;48.922;12.198;2023-02-15T07:46:41;3.30;73.50
484;DHT22;228;48.922;12.198;2023-02-15T07:49:07;3.60;73.10
484;DHT22;228;48.922;12.198;2023-02-15T07:51:33;3.40;71.90
484;DHT22;228;48.922;12.198;2023-02-15T07:54:00;3.10;73.60
484;DHT22;228;48.922;12.198;2023-02-15T07:56:25;3.30;73.40
484;DHT22;228;48.922;12.198;2023-02-15T07:58:51;3.60;72.70
484;DHT22;228;48.922;12.198;2023-02-15T08:01:31;3.90;71.30
484;DHT22;228;48.922;12.198;2023-02-15T08:03:59;4.20;70.60
484;DHT22;228;48.922;12.198;2023-02-15T08:06:27;4.10;69.20
484;DHT22;228;48.922;12.198;2023-02-15T08:08:55;4.10;70.10
484;DHT22;228;48.922;12.198;2023-02-15T08:11:29;4.30;69.70
484;DHT22;228;48.922;12.198;2023-02-15T08:14:05;4.10;69.30
484;DHT22;228;48.922;12.198;2023-02-15T08:21:47;3.20;73.50
484;DHT22;228;48.922;12.198;2023-02-15T08:24:16;3.50;72.40
484;DHT22;228;48.922;12.198;2023-02-15T08:26:44;3.40;72.30
484;DHT22;228;48.922;12.198;2023-02-15T08:29:12;3.20;72.60
484;DHT22;228;48.922;12.198;2023-02-15T08:31:39;2.60;73.70
484;DHT22;228;48.922;12.198;2023-02-15T08:34:08;2.40;76.00
484;DHT22;228;48.922;12.198;2023-02-15T08:36:35;2.60;75.30
484;DHT22;228;48.922;12.198;2023-02-15T08:39:03;2.30;76.00
484;DHT22;228;48.922;12.198;2023-02-15T08:41:33;2.60;76.70
484;DHT22;228;48.922;12.198;2023-02-15T08:44:02;2.50;76.70
484;DHT22;228;48.922;12.198;2023-02-15T08:46:32;2.50;76.30
484;DHT22;228;48.922;12.198;2023-02-15T08:49:00;2.80;75.50
484;DHT22;228;48.922;12.198;2023-02-15T08:51:29;3.20;75.00
484;DHT22;228;48.922;12.198;2023-02-15T08:53:58;3.70;73.00
484;DHT22;228;48.922;12.198;2023-02-15T08:56:28;3.50;72.20
484;DHT22;228;48.922;12.198;2023-02-15T08:58:55;3.60;72.60
484;DHT22;228;48.922;12.198;2023-02-15T09:01:24;3.30;72.40
484;DHT22;228;48.922;12.198;2023-02-15T09:04:05;3.50;72.40
484;DHT22;228;48.922;12.198;2023-02-15T09:06:34;4.00;71.50
484;DHT22;228;48.922;12.198;2023-02-15T09:09:01;3.90;70.40
484;DHT22;228;48.922;12.198;2023-02-15T09:11:33;3.90;71.20
484;DHT22;228;48.922;12.198;2023-02-15T09:14:03;3.60;71.20
484;DHT22;228;48.922;12.198;2023-02-15T09:16:35;3.30;73.60
484;DHT22;228;48.922;12.198;2023-02-15T09:19:03;3.50;73.00
484;DHT22;228;48.922;12.198;2023-02-15T09:21:36;3.50;72.30
484;DHT22;228;48.922;12.198;2023-02-15T09:24:05;3.20;72.90
484;DHT22;228;48.922;12.198;2023-02-15T09:26:36;2.60;73.80
484;DHT22;228;48.922;12.198;2023-02-15T09:29:06;3.00;75.50
484;DHT22;228;48.922;12.198;2023-02-15T09:31:37;3.60;74.00
484;DHT22;228;48.922;12.198;2023-02-15T09:34:16;3.40;72.40
484;DHT22;228;48.922;12.198;2023-02-15T09:36:44;3.60;72.90
484;DHT22;228;48.922;12.198;2023-02-15T09:39:17;3.90;71.40
484;DHT22;228;48.922;12.198;2023-02-15T09:58:18;4.20;69.80
484;DHT22;228;48.922;12.198;2023-02-15T10:01:06;4.20;69.60
484;DHT22;228;48.922;12.198;2023-02-15T10:07:01;4.60;69.40
484;DHT22;228;48.922;12.198;2023-02-15T10:09:54;5.00;67.30
484;DHT22;228;48.922;12.198;2023-02-15T10:12:53;5.30;66.80
484;DHT22;228;48.922;12.198;2023-02-15T10:15:29;4.30;69.00
484;DHT22;228;48.922;12.198;2023-02-15T10:27:47;5.50;66.70
484;DHT22;228;48.922;12.198;2023-02-15T10:30:57;4.40;68.30
484;DHT22;228;48.922;12.198;2023-02-15T10:33:41;4.10;70.90
484;DHT22;228;48.922;12.198;2023-02-15T10:55:46;6.10;65.50
484;DHT22;228;48.922;12.198;2023-02-15T10:58:28;6.30;64.30
484;DHT22;228;48.922;12.198;2023-02-15T11:06:48;5.80;64.60
484;DHT22;228;48.922;12.198;2023-02-15T11:09:19;5.50;65.40
484;DHT22;228;48.922;12.198;2023-02-15T11:11:49;5.80;65.70
484;DHT22;228;48.922;12.198;2023-02-15T11:15:14;6.20;64.50
484;DHT22;228;48.922;12.198;2023-02-15T11:17:28;6.40;63.90
484;DHT22;228;48.922;12.198;2023-02-15T11:20:16;6.30;63.20
484;DHT22;228;48.922;12.198;2023-02-15T11:22:48;5.60;65.50
484;DHT22;228;48.922;12.198;2023-02-15T11:25:24;5.40;65.90
484;DHT22;228;48.922;12.198;2023-02-15T11:27:54;5.90;65.70
484;DHT22;228;48.922;12.198;2023-02-15T11:30:23;5.30;66.40
484;DHT22;228;48.922;12.198;2023-02-15T11:32:54;5.90;66.30
484;DHT22;228;48.922;12.198;2023-02-15T11:35:42;6.10;65.80
484;DHT22;228;48.922;12.198;2023-02-15T11:38:31;5.50;65.00
484;DHT22;228;48.922;12.198;2023-02-15T11:41:05;4.80;67.10
484;DHT22;228;48.922;12.198;2023-02-15T11:43:57;5.10;68.40
484;DHT22;228;48.922;12.198;2023-02-15T11:46:26;5.90;66.40
484;DHT22;228;48.922;12.198;2023-02-15T11:48:52;6.60;64.40
484;DHT22;228;48.922;12.198;2023-02-15T11:51:21;6.20;64.00
484;DHT22;228;48.922;12.198;2023-02-15T11:53:48;6.70;63.80
484;DHT22;228;48.922;12.198;2023-02-15T11:56:16;6.90;62.60
484;DHT22;228;48.922;12.198;2023-02-15T11:59:04;6.50;62.90
484;DHT22;228;48.922;12.198;2023-02-15T12:01:45;6.50;63.30
484;DHT22;228;48.922;12.198;2023-02-15T12:04:29;6.30;62.90
484;DHT22;228;48.922;12.198;2023-02-15T12:12:43;6.50;63.50
484;DHT22;228;48.922;12.198;2023-02-15T12:15:13;6.10;63.40
484;DHT22;228;48.922;12.198;2023-02-15T12:17:48;6.40;64.30
484;DHT22;228;48.922;12.198;2023-02-15T12:22:58;6.30;63.90
484;DHT22;228;48.922;12.198;2023-02-15T12:25:51;6.10;64.80
484;DHT22;228;48.922;12.198;2023-02-15T12:28:37;5.90;65.10
484;DHT22;228;48.922;12.198;2023-02-15T12:34:36;5.80;66.30
484;DHT22;228;48.922;12.198;2023-02-15T12:37:17;5.10;67.30
484;DHT22;228;48.922;12.198;2023-02-15T12:39:58;5.40;68.20
484;DHT22;228;48.922;12.198;2023-02-15T12:42:27;5.90;66.00
484;DHT22;228;48.922;12.198;2023-02-15T12:45:02;5.60;66.70
484;DHT22;228;48.922;12.198;2023-02-15T12:47:31;5.70;66.40
484;DHT22;228;48.922;12.198;2023-02-15T12:52:34;5.90;64.80
484;DHT22;228;48.922;12.198;2023-02-15T12:55:23;5.90;65.20
484;DHT22;228;48.922;12.198;2023-02-15T13:00:44;5.10;67.40
484;DHT22;228;48.922;12.198;2023-02-15T13:03:20;5.00;68.20
484;DHT22;228;48.922;12.198;2023-02-15T13:05:50;5.10;68.90
484;DHT22;228;48.922;12.198;2023-02-15T13:08:30;5.20;68.10
484;DHT22;228;48.922;12.198;2023-02-15T13:11:08;5.50;67.30
484;DHT22;228;48.922;12.198;2023-02-15T13:13:58;5.40;67.10
484;DHT22;228;48.922;12.198;2023-02-15T13:16:38;5.10;67.40
484;DHT22;228;48.922;12.198;2023-02-15T13:19:26;5.50;68.20
484;DHT22;228;48.922;12.198;2023-02-15T13:21:58;5.60;67.70
484;DHT22;228;48.922;12.198;2023-02-15T13:24:39;6.00;66.00
484;DHT22;228;48.922;12.198;2023-02-15T13:27:14;6.40;65.00
484;DHT22;228;48.922;12.198;2023-02-15T13:29:51;6.50;63.90
484;DHT22;228;48.922;12.198;2023-02-15T13:32:36;6.40;63.30
484;DHT22;228;48.922;12.198;2023-02-15T13:35:04;5.90;64.70
484;DHT22;228;48.922;12.198;2023-02-15T13:41:01;5.60;66.20
484;DHT22;228;48.922;12.198;2023-02-15T13:43:52;5.40;67.80
484;DHT22;228;48.922;12.198;2023-02-15T13:46:47;5.60;67.50
484;DHT22;228;48.922;12.198;2023-02-15T13:52:28;5.70;66.60
484;DHT22;228;48.922;12.198;2023-02-15T13:55:23;5.40;66.90
484;DHT22;228;48.922;12.198;2023-02-15T14:00:56;4.90;67.90
484;DHT22;228;48.922;12.198;2023-02-15T14:18:25;4.60;70.80
484;DHT22;228;48.922;12.198;2023-02-15T14:21:34;5.20;70.00
484;DHT22;228;48.922;12.198;2023-02-15T14:30:02;5.40;67.90
484;DHT22;228;48.922;12.198;2023-02-15T14:32:42;5.50;68.20
484;DHT22;228;48.922;12.198;2023-02-15T14:35:19;5.40;67.10
484;DHT22;228;48.922;12.198;2023-02-15T14:38:13;4.80;69.20
484;DHT22;228;48.922;12.198;2023-02-15T14:44:06;5.50;67.90
484;DHT22;228;48.922;12.198;2023-02-15T14:49:39;5.20;67.70
484;DHT22;228;48.922;12.198;2023-02-15T14:52:07;5.60;68.40
484;DHT22;228;48.922;12.198;2023-02-15T15:05:31;5.60;66.80
484;DHT22;228;48.922;12.198;2023-02-15T15:08:01;5.80;66.10
484;DHT22;228;48.922;12.198;2023-02-15T15:15:57;5.80;66.10
484;DHT22;228;48.922;12.198;2023-02-15T15:18:54;5.80;65.70
484;DHT22;228;48.922;12.198;2023-02-15T15:22:02;5.70;66.00
484;DHT22;228;48.922;12.198;2023-02-15T15:50:25;4.60;69.70
484;DHT22;228;48.922;12.198;2023-02-15T15:52:57;4.60;70.40
484;DHT22;228;48.922;12.198;2023-02-15T15:55:26;5.00;69.10
484;DHT22;228;48.922;12.198;2023-02-15T15:58:06;5.30;67.70
484;DHT22;228;48.922;12.198;2023-02-15T16:03:27;4.90;68.30
484;DHT22;228;48.922;12.198;2023-02-15T16:05:54;4.80;67.80
484;DHT22;228;48.922;12.198;2023-02-15T16:08:51;5.10;67.80
484;DHT22;228;48.922;12.198;2023-02-15T16:11:22;5.30;66.60
484;DHT22;228;48.922;12.198;2023-02-15T16:13:50;5.40;66.70
484;DHT22;228;48.922;12.198;2023-02-15T16:16:26;5.50;65.70
484;DHT22;228;48.922;12.198;2023-02-15T16:18:55;5.00;67.30
484;DHT22;228;48.922;12.198;2023-02-15T16:21:31;4.70;68.00
484;DHT22;228;48.922;12.198;2023-02-15T16:24:54;4.70;68.80
484;DHT22;228;48.922;12.198;2023-02-15T16:27:50;4.90;68.40
484;DHT22;228;48.922;12.198;2023-02-15T16:30:30;5.10;67.90
484;DHT22;228;48.922;12.198;2023-02-15T16:33:09;5.30;66.60
484;DHT22;228;48.922;12.198;2023-02-15T16:35:57;5.30;66.30
484;DHT22;228;48.922;12.198;2023-02-15T16:41:14;4.00;70.60
484;DHT22;228;48.922;12.198;2023-02-15T16:43:45;4.40;72.10
484;DHT22;228;48.922;12.198;2023-02-15T16:46:33;4.60;70.30
484;DHT22;228;48.922;12.198;2023-02-15T16:49:04;4.70;69.40
484;DHT22;228;48.922;12.198;2023-02-15T16:51:43;4.70;69.40
484;DHT22;228;48.922;12.198;2023-02-15T16:54:18;4.70;69.40
484;DHT22;228;48.922;12.198;2023-02-15T16:56:45;4.60;70.20
484;DHT22;228;48.922;12.198;2023-02-15T16:59:38;4.60;69.10
484;DHT22;228;48.922;12.198;2023-02-15T17:02:15;3.40;70.90
484;DHT22;228;48.922;12.198;2023-02-15T17:05:04;3.60;72.30
484;DHT22;228;48.922;12.198;2023-02-15T17:07:33;3.70;73.60
484;DHT22;228;48.922;12.198;2023-02-15T17:10:26;3.90;72.90
484;DHT22;228;48.922;12.198;2023-02-15T17:12:56;3.80;72.60
484;DHT22;228;48.922;12.198;2023-02-15T17:15:36;3.90;73.00
484;DHT22;228;48.922;12.198;2023-02-15T17:18:04;4.10;71.70
484;DHT22;228;48.922;12.198;2023-02-15T17:20:33;4.20;71.80
484;DHT22;228;48.922;12.198;2023-02-15T17:22:59;4.50;71.00
484;DHT22;228;48.922;12.198;2023-02-15T17:25:37;4.60;70.10
484;DHT22;228;48.922;12.198;2023-02-15T17:28:05;4.70;69.70
484;DHT22;228;48.922;12.198;2023-02-15T17:30:41;4.70;69.70
484;DHT22;228;48.922;12.198;2023-02-15T17:33:38;4.70;69.30
484;DHT22;228;48.922;12.198;2023-02-15T17:39:05;4.40;70.90
484;DHT22;228;48.922;12.198;2023-02-15T17:41:37;4.50;70.50
484;DHT22;228;48.922;12.198;2023-02-15T17:44:04;4.60;70.60
484;DHT22;228;48.922;12.198;2023-02-15T17:46:36;4.70;69.70
484;DHT22;228;48.922;12.198;2023-02-15T17:49:02;4.80;70.00
484;DHT22;228;48.922;12.198;2023-02-15T17:51:31;4.90;69.20
484;DHT22;228;48.922;12.198;2023-02-15T17:54:01;5.10;68.80
484;DHT22;228;48.922;12.198;2023-02-15T17:56:46;5.00;68.20
484;DHT22;228;48.922;12.198;2023-02-15T17:59:12;5.10;68.20
484;DHT22;228;48.922;12.198;2023-02-15T18:01:45;5.20;68.50
484;DHT22;228;48.922;12.198;2023-02-15T18:04:32;5.10;68.10
484;DHT22;228;48.922;12.198;2023-02-15T18:07:18;5.20;68.60
484;DHT22;228;48.922;12.198;2023-02-15T18:10:18;5.30;68.20
484;DHT22;228;48.922;12.198;2023-02-15T18:13:04;5.40;67.60
484;DHT22;228;48.922;12.198;2023-02-15T18:15:30;5.30;67.40
484;DHT22;228;48.922;12.198;2023-02-15T18:17:56;5.10;67.70
484;DHT22;228;48.922;12.198;2023-02-15T18:20:35;5.00;68.30
484;DHT22;228;48.922;12.198;2023-02-15T18:23:04;4.00;70.30
484;DHT22;228;48.922;12.198;2023-02-15T18:25:32;4.10;71.20
484;DHT22;228;48.922;12.198;2023-02-15T18:27:57;3.30;73.90
484;DHT22;228;48.922;12.198;2023-02-15T18:30:24;3.80;73.80
484;DHT22;228;48.922;12.198;2023-02-15T18:32:52;3.70;72.50
484;DHT22;228;48.922;12.198;2023-02-15T18:35:23;3.70;73.50
484;DHT22;228;48.922;12.198;2023-02-15T18:37:52;4.10;72.90
484;DHT22;228;48.922;12.198;2023-02-15T18:40:24;4.00;72.10
484;DHT22;228;48.922;12.198;2023-02-15T18:42:52;4.00;72.20
484;DHT22;228;48.922;12.198;2023-02-15T18:45:26;3.80;72.70
484;DHT22;228;48.922;12.198;2023-02-15T18:47:57;3.60;73.50
484;DHT22;228;48.922;12.198;2023-02-15T18:50:30;2.90;76.00
484;DHT22;228;48.922;12.198;2023-02-15T18:52:58;3.50;75.70
484;DHT22;228;48.922;12.198;2023-02-15T18:55:26;4.10;73.80
484;DHT22;228;48.922;12.198;2023-02-15T18:57:55;4.40;72.00
484;DHT22;228;48.922;12.198;2023-02-15T19:00:27;4.00;71.50
484;DHT22;228;48.922;12.198;2023-02-15T19:02:55;3.60;73.80
484;DHT22;228;48.922;12.198;2023-02-15T19:05:22;3.90;73.60
484;DHT22;228;48.922;12.198;2023-02-15T19:07:49;4.10;71.70
484;DHT22;228;48.922;12.198;2023-02-15T19:10:24;4.10;71.70
484;DHT22;228;48.922;12.198;2023-02-15T19:12:52;4.30;71.90
484;DHT22;228;48.922;12.198;2023-02-15T19:15:21;4.50;70.80
484;DHT22;228;48.922;12.198;2023-02-15T19:17:52;4.50;70.60
484;DHT22;228;48.922;12.198;2023-02-15T19:20:36;4.50;70.30
484;DHT22;228;48.922;12.198;2023-02-15T19:23:07;4.50;70.00
484;DHT22;228;48.922;12.198;2023-02-15T19:25:38;4.20;71.80
484;DHT22;228;48.922;12.198;2023-02-15T19:28:15;4.50;71.30
484;DHT22;228;48.922;12.198;2023-02-15T19:30:46;4.80;70.00
484;DHT22;228;48.922;12.198;2023-02-15T19:33:16;4.90;69.50
484;DHT22;228;48.922;12.198;2023-02-15T19:35:45;5.00;69.40
484;DHT22;228;48.922;12.198;2023-02-15T19:38:19;5.00;69.10
484;DHT22;228;48.922;12.198;2023-02-15T19:40:47;5.10;68.60
484;DHT22;228;48.922;12.198;2023-02-15T19:43:19;4.80;69.30
484;DHT22;228;48.922;12.198;2023-02-15T19:45:48;4.50;70.20
484;DHT22;228;48.922;12.198;2023-02-15T19:48:17;4.50;70.30
484;DHT22;228;48.922;12.198;2023-02-15T19:50:45;3.90;71.40
484;DHT22;228;48.922;12.198;2023-02-15T19:53:23;4.30;71.90
484;DHT22;228;48.922;12.198;2023-02-15T19:55:51;4.60;70.80
484;DHT22;228;48.922;12.198;2023-02-15T19:58:18;3.80;71.40
484;DHT22;228;48.922;12.198;2023-02-15T20:00:49;3.40;74.10
484;DHT22;228;48.922;12.198;2023-02-15T20:03:16;3.10;74.30
484;DHT22;228;48.922;12.198;2023-02-15T20:05:42;3.50;74.60
484;DHT22;228;48.922;12.198;2023-02-15T20:08:16;3.60;72.70
484;DHT22;228;48.922;12.198;2023-02-15T20:10:44;3.50;72.80
484;DHT22;228;48.922;12.198;2023-02-15T20:13:16;3.40;72.80
484;DHT22;228;48.922;12.198;2023-02-15T20:15:43;3.00;73.20
484;DHT22;228;48.922;12.198;2023-02-15T20:18:10;2.90;74.60
484;DHT22;228;48.922;12.198;2023-02-15T20:20:48;2.90;74.20
484;DHT22;228;48.922;12.198;2023-02-15T20:23:19;2.90;75.00
484;DHT22;228;48.922;12.198;2023-02-15T20:25:47;3.30;74.80
484;DHT22;228;48.922;12.198;2023-02-15T20:28:26;3.70;73.80
484;DHT22;228;48.922;12.198;2023-02-15T20:30:54;4.00;72.20
484;DHT22;228;48.922;12.198;2023-02-15T20:33:22;3.60;71.60
484;DHT22;228;48.922;12.198;2023-02-15T20:35:48;3.80;72.20
484;DHT22;228;48.922;12.198;2023-02-15T20:38:22;2.80;75.10
484;DHT22;228;48.922;12.198;2023-02-15T20:40:53;3.10;75.10
484;DHT22;228;48.922;12.198;2023-02-15T20:43:39;3.20;75.00
484;DHT22;228;48.922;12.198;2023-02-15T20:46:06;3.30;74.40
484;DHT22;228;48.922;12.198;2023-02-15T20:48:32;3.30;74.30